sensor_id;sensor_type;location;lat;lon;timestamp;P1;durP1;ratioP1;P2;durP2;ratioP2
19260;SDS011;9764;48.114;11.670;2023-04-25T00:02:08;0.55;;;0.55;;
19260;SDS011;9764;48.114;11.670;2023-04-25T00:04:36;0.57;;;0.57;;
19260;SDS011;9764;48.114;11.670;2023-04-25T00:07:05;0.60;;;0.60;;
19260;SDS011;9764;48.114;11.670;2023-04-25T00:09:35;0.52;;;0.52;;
19260;SDS011;9764;48.114;11.670;2023-04-25T00:12:03;0.68;;;0.68;;
19260;SDS011;9764;48.114;11.670;2023-04-25T00:14:32;0.57;;;0.57;;
19260;SDS011;9764;48.114;11.670;2023-04-25T00:17:01;0.60;;;0.60;;
19260;SDS011;9764;48.114;11.670;2023-04-25T00:19:30;0.43;;;0.43;;
19260;SDS011;9764;48.114;11.670;2023-04-25T00:21:59;0.60;;;0.60;;
19260;SDS011;9764;48.114;11.670;2023-04-25T00:24:27;0.60;;;0.60;;
19260;SDS011;9764;48.114;11.670;2023-04-25T00:26:57;0.50;;;0.50;;
19260;SDS011;9764;48.114;11.670;2023-04-25T00:29:25;0.70;;;0.60;;
19260;SDS011;9764;48.114;11.670;2023-04-25T00:31:53;1.65;;;0.85;;
19260;SDS011;9764;48.114;11.670;2023-04-25T00:34:22;0.50;;;0.50;;
19260;SDS011;9764;48.114;11.670;2023-04-25T00:36:50;0.60;;;0.60;;
19260;SDS011;9764;48.114;11.670;2023-04-25T00:39:18;0.52;;;0.52;;
19260;SDS011;9764;48.114;11.670;2023-04-25T00:41:47;0.68;;;0.60;;
19260;SDS011;9764;48.114;11.670;2023-04-25T00:44:20;0.50;;;0.50;;
19260;SDS011;9764;48.114;11.670;2023-04-25T00:46:49;0.73;;;0.70;;
19260;SDS011;9764;48.114;11.670;2023-04-25T00:49:18;0.82;;;0.60;;
19260;SDS011;9764;48.114;11.670;2023-04-25T00:51:46;1.02;;;0.70;;
19260;SDS011;9764;48.114;11.670;2023-04-25T00:54:15;0.52;;;0.52;;
19260;SDS011;9764;48.114;11.670;2023-04-25T00:56:44;0.80;;;0.80;;
19260;SDS011;9764;48.114;11.670;2023-04-25T00:59:12;0.50;;;0.50;;
19260;SDS011;9764;48.114;11.670;2023-04-25T01:01:44;0.60;;;0.60;;
19260;SDS011;9764;48.114;11.670;2023-04-25T01:04:13;0.60;;;0.60;;
19260;SDS011;9764;48.114;11.670;2023-04-25T01:06:41;0.50;;;0.50;;
19260;SDS011;9764;48.114;11.670;2023-04-25T01:09:10;0.93;;;0.60;;
19260;SDS011;9764;48.114;11.670;2023-04-25T01:11:39;0.60;;;0.60;;
19260;SDS011;9764;48.114;11.670;2023-04-25T01:14:07;0.60;;;0.60;;
19260;SDS011;9764;48.114;11.670;2023-04-25T01:16:35;1.25;;;0.70;;
19260;SDS011;9764;48.114;11.670;2023-04-25T01:19:06;0.50;;;0.50;;
19260;SDS011;9764;48.114;11.670;2023-04-25T01:21:40;0.60;;;0.60;;
19260;SDS011;9764;48.114;11.670;2023-04-25T01:24:08;0.60;;;0.60;;
19260;SDS011;9764;48.114;11.670;2023-04-25T01:26:37;0.60;;;0.60;;
19260;SDS011;9764;48.114;11.670;2023-04-25T01:29:07;0.77;;;0.77;;
19260;SDS011;9764;48.114;11.670;2023-04-25T01:31:35;0.95;;;0.75;;
19260;SDS011;9764;48.114;11.670;2023-04-25T01:34:05;0.57;;;0.57;;
19260;SDS011;9764;48.114;11.670;2023-04-25T01:36:33;0.70;;;0.63;;
19260;SDS011;9764;48.114;11.670;2023-04-25T01:39:03;0.93;;;0.65;;
19260;SDS011;9764;48.114;11.670;2023-04-25T01:41:32;0.60;;;0.60;;
19260;SDS011;9764;48.114;11.670;2023-04-25T01:44:02;0.52;;;0.52;;
19260;SDS011;9764;48.114;11.670;2023-04-25T01:46:32;1.10;;;0.60;;
19260;SDS011;9764;48.114;11.670;2023-04-25T01:49:02;0.70;;;0.70;;
19260;SDS011;9764;48.114;11.670;2023-04-25T01:51:31;0.60;;;0.60;;
19260;SDS011;9764;48.114;11.670;2023-04-25T01:54:00;0.93;;;0.60;;
19260;SDS011;9764;48.114;11.670;2023-04-25T01:56:36;0.73;;;0.60;;
19260;SDS011;9764;48.114;11.670;2023-04-25T01:59:07;0.60;;;0.60;;
19260;SDS011;9764;48.114;11.670;2023-04-25T02:02:10;0.60;;;0.60;;
19260;SDS011;9764;48.114;11.670;2023-04-25T02:04:39;1.95;;;0.75;;
19260;SDS011;9764;48.114;11.670;2023-04-25T02:07:08;0.60;;;0.60;;
19260;SDS011;9764;48.114;11.670;2023-04-25T02:09:47;0.63;;;0.63;;
19260;SDS011;9764;48.114;11.670;2023-04-25T02:12:18;0.60;;;0.60;;
19260;SDS011;9764;48.114;11.670;2023-04-25T02:15:25;0.52;;;0.52;;
19260;SDS011;9764;48.114;11.670;2023-04-25T02:17:57;0.60;;;0.60;;
19260;SDS011;9764;48.114;11.670;2023-04-25T02:20:26;0.55;;;0.55;;
19260;SDS011;9764;48.114;11.670;2023-04-25T02:22:56;1.20;;;0.70;;
19260;SDS011;9764;48.114;11.670;2023-04-25T02:25:26;0.70;;;0.70;;
19260;SDS011;9764;48.114;11.670;2023-04-25T02:27:56;1.17;;;0.70;;
19260;SDS011;9764;48.114;11.670;2023-04-25T02:30:24;1.25;;;0.70;;
19260;SDS011;9764;48.114;11.670;2023-04-25T02:32:53;0.60;;;0.60;;
19260;SDS011;9764;48.114;11.670;2023-04-25T02:35:21;0.60;;;0.60;;
19260;SDS011;9764;48.114;11.670;2023-04-25T02:37:53;0.70;;;0.70;;
19260;SDS011;9764;48.114;11.670;2023-04-25T02:40:21;0.65;;;0.65;;
19260;SDS011;9764;48.114;11.670;2023-04-25T02:42:49;0.70;;;0.70;;
19260;SDS011;9764;48.114;11.670;2023-04-25T02:45:19;0.93;;;0.60;;
19260;SDS011;9764;48.114;11.670;2023-04-25T02:47:48;0.65;;;0.60;;
19260;SDS011;9764;48.114;11.670;2023-04-25T02:50:18;0.70;;;0.70;;
19260;SDS011;9764;48.114;11.670;2023-04-25T02:52:46;0.70;;;0.70;;
19260;SDS011;9764;48.114;11.670;2023-04-25T02:55:19;0.60;;;0.60;;
19260;SDS011;9764;48.114;11.670;2023-04-25T02:57:50;0.60;;;0.60;;
19260;SDS011;9764;48.114;11.670;2023-04-25T03:00:31;0.70;;;0.70;;
19260;SDS011;9764;48.114;11.670;2023-04-25T03:03:00;1.83;;;0.70;;
19260;SDS011;9764;48.114;11.670;2023-04-25T03:05:29;0.60;;;0.60;;
19260;SDS011;9764;48.114;11.670;2023-04-25T03:07:58;0.63;;;0.60;;
19260;SDS011;9764;48.114;11.670;2023-04-25T03:10:27;1.48;;;0.70;;
19260;SDS011;9764;48.114;11.670;2023-04-25T03:12:59;0.70;;;0.70;;
19260;SDS011;9764;48.114;11.670;2023-04-25T03:15:28;1.80;;;0.68;;
19260;SDS011;9764;48.114;11.670;2023-04-25T03:17:57;0.95;;;0.85;;
19260;SDS011;9764;48.114;11.670;2023-04-25T03:20:26;2.15;;;0.80;;
19260;SDS011;9764;48.114;11.670;2023-04-25T03:22:54;0.63;;;0.63;;
19260;SDS011;9764;48.114;11.670;2023-04-25T03:25:23;1.60;;;0.77;;
19260;SDS011;9764;48.114;11.670;2023-04-25T03:27:52;0.75;;;0.70;;
19260;SDS011;9764;48.114;11.670;2023-04-25T03:30:20;1.98;;;0.85;;
19260;SDS011;9764;48.114;11.670;2023-04-25T03:32:49;1.23;;;0.82;;
19260;SDS011;9764;48.114;11.670;2023-04-25T03:35:18;1.05;;;0.80;;
19260;SDS011;9764;48.114;11.670;2023-04-25T03:37:47;0.88;;;0.70;;
19260;SDS011;9764;48.114;11.670;2023-04-25T03:40:20;0.85;;;0.50;;
19260;SDS011;9764;48.114;11.670;2023-04-25T03:43:07;1.63;;;0.70;;
19260;SDS011;9764;48.114;11.670;2023-04-25T03:45:36;0.82;;;0.73;;
19260;SDS011;9764;48.114;11.670;2023-04-25T03:48:05;1.25;;;0.80;;
19260;SDS011;9764;48.114;11.670;2023-04-25T03:50:35;1.50;;;0.70;;
19260;SDS011;9764;48.114;11.670;2023-04-25T03:53:03;0.93;;;0.75;;
19260;SDS011;9764;48.114;11.670;2023-04-25T03:55:52;0.82;;;0.70;;
19260;SDS011;9764;48.114;11.670;2023-04-25T03:58:20;1.27;;;0.80;;
19260;SDS011;9764;48.114;11.670;2023-04-25T04:00:49;1.38;;;0.70;;
19260;SDS011;9764;48.114;11.670;2023-04-25T04:03:18;0.95;;;0.80;;
19260;SDS011;9764;48.114;11.670;2023-04-25T04:05:48;1.23;;;0.77;;
19260;SDS011;9764;48.114;11.670;2023-04-25T04:08:17;0.80;;;0.80;;
19260;SDS011;9764;48.114;11.670;2023-04-25T04:10:46;1.52;;;0.60;;
19260;SDS011;9764;48.114;11.670;2023-04-25T04:13:14;0.70;;;0.70;;
19260;SDS011;9764;48.114;11.670;2023-04-25T04:15:43;0.82;;;0.80;;
19260;SDS011;9764;48.114;11.670;2023-04-25T04:18:12;0.85;;;0.85;;
19260;SDS011;9764;48.114;11.670;2023-04-25T04:20:40;0.90;;;0.80;;
19260;SDS011;9764;48.114;11.670;2023-04-25T04:23:10;1.10;;;0.80;;
19260;SDS011;9764;48.114;11.670;2023-04-25T04:25:39;0.80;;;0.80;;
19260;SDS011;9764;48.114;11.670;2023-04-25T04:28:27;1.00;;;0.75;;
19260;SDS011;9764;48.114;11.670;2023-04-25T04:31:00;0.85;;;0.77;;
19260;SDS011;9764;48.114;11.670;2023-04-25T04:33:32;1.00;;;0.90;;
19260;SDS011;9764;48.114;11.670;2023-04-25T04:36:02;0.85;;;0.85;;
19260;SDS011;9764;48.114;11.670;2023-04-25T04:38:35;0.82;;;0.80;;
19260;SDS011;9764;48.114;11.670;2023-04-25T04:41:08;0.88;;;0.80;;
19260;SDS011;9764;48.114;11.670;2023-04-25T04:43:48;0.68;;;0.68;;
19260;SDS011;9764;48.114;11.670;2023-04-25T04:46:36;0.95;;;0.90;;
19260;SDS011;9764;48.114;11.670;2023-04-25T04:49:25;0.70;;;0.70;;
19260;SDS011;9764;48.114;11.670;2023-04-25T04:52:25;0.93;;;0.90;;
19260;SDS011;9764;48.114;11.670;2023-04-25T04:55:03;1.00;;;0.90;;
19260;SDS011;9764;48.114;11.670;2023-04-25T04:57:42;1.50;;;0.95;;
19260;SDS011;9764;48.114;11.670;2023-04-25T05:00:28;0.82;;;0.80;;
19260;SDS011;9764;48.114;11.670;2023-04-25T05:03:23;0.70;;;0.65;;
19260;SDS011;9764;48.114;11.670;2023-04-25T05:06:06;0.77;;;0.77;;
19260;SDS011;9764;48.114;11.670;2023-04-25T05:08:54;0.80;;;0.80;;
19260;SDS011;9764;48.114;11.670;2023-04-25T05:11:47;0.80;;;0.80;;
19260;SDS011;9764;48.114;11.670;2023-04-25T05:14:28;0.70;;;0.70;;
19260;SDS011;9764;48.114;11.670;2023-04-25T05:17:06;1.08;;;0.70;;
19260;SDS011;9764;48.114;11.670;2023-04-25T05:19:57;0.82;;;0.80;;
19260;SDS011;9764;48.114;11.670;2023-04-25T05:22:38;1.23;;;0.88;;
19260;SDS011;9764;48.114;11.670;2023-04-25T05:25:21;2.25;;;0.90;;
19260;SDS011;9764;48.114;11.670;2023-04-25T05:28:06;1.10;;;0.70;;
19260;SDS011;9764;48.114;11.670;2023-04-25T05:30:57;0.80;;;0.80;;
19260;SDS011;9764;48.114;11.670;2023-04-25T05:33:29;0.88;;;0.80;;
19260;SDS011;9764;48.114;11.670;2023-04-25T05:35:58;1.55;;;0.90;;
19260;SDS011;9764;48.114;11.670;2023-04-25T05:38:27;2.15;;;0.80;;
19260;SDS011;9764;48.114;11.670;2023-04-25T05:41:13;0.80;;;0.80;;
19260;SDS011;9764;48.114;11.670;2023-04-25T05:43:48;1.08;;;0.90;;
19260;SDS011;9764;48.114;11.670;2023-04-25T05:46:24;1.33;;;0.85;;
19260;SDS011;9764;48.114;11.670;2023-04-25T05:49:12;1.67;;;0.95;;
19260;SDS011;9764;48.114;11.670;2023-04-25T05:52:03;1.00;;;0.75;;
19260;SDS011;9764;48.114;11.670;2023-04-25T05:54:31;0.98;;;0.70;;
19260;SDS011;9764;48.114;11.670;2023-04-25T05:56:59;2.42;;;1.02;;
19260;SDS011;9764;48.114;11.670;2023-04-25T05:59:30;1.00;;;0.95;;
19260;SDS011;9764;48.114;11.670;2023-04-25T06:01:59;1.45;;;0.90;;
19260;SDS011;9764;48.114;11.670;2023-04-25T06:04:31;0.90;;;0.70;;
19260;SDS011;9764;48.114;11.670;2023-04-25T06:07:00;1.65;;;0.90;;
19260;SDS011;9764;48.114;11.670;2023-04-25T06:09:28;0.70;;;0.70;;
19260;SDS011;9764;48.114;11.670;2023-04-25T06:11:57;0.93;;;0.90;;
19260;SDS011;9764;48.114;11.670;2023-04-25T06:14:25;2.47;;;1.08;;
19260;SDS011;9764;48.114;11.670;2023-04-25T06:16:56;1.23;;;0.80;;
19260;SDS011;9764;48.114;11.670;2023-04-25T06:19:25;1.23;;;0.85;;
19260;SDS011;9764;48.114;11.670;2023-04-25T06:21:54;1.33;;;0.70;;
19260;SDS011;9764;48.114;11.670;2023-04-25T06:24:22;0.85;;;0.85;;
19260;SDS011;9764;48.114;11.670;2023-04-25T06:26:50;0.95;;;0.90;;
19260;SDS011;9764;48.114;11.670;2023-04-25T06:29:19;0.90;;;0.90;;
19260;SDS011;9764;48.114;11.670;2023-04-25T06:31:47;0.80;;;0.80;;
19260;SDS011;9764;48.114;11.670;2023-04-25T06:34:18;1.15;;;0.90;;
19260;SDS011;9764;48.114;11.670;2023-04-25T06:36:47;1.40;;;0.88;;
19260;SDS011;9764;48.114;11.670;2023-04-25T06:39:15;0.60;;;0.60;;
19260;SDS011;9764;48.114;11.670;2023-04-25T06:41:44;0.70;;;0.70;;
19260;SDS011;9764;48.114;11.670;2023-04-25T06:44:48;0.70;;;0.70;;
19260;SDS011;9764;48.114;11.670;2023-04-25T06:47:17;0.60;;;0.60;;
19260;SDS011;9764;48.114;11.670;2023-04-25T06:49:49;0.88;;;0.88;;
19260;SDS011;9764;48.114;11.670;2023-04-25T06:52:19;0.98;;;0.98;;
19260;SDS011;9764;48.114;11.670;2023-04-25T06:54:47;0.73;;;0.73;;
19260;SDS011;9764;48.114;11.670;2023-04-25T06:57:50;1.27;;;0.93;;
19260;SDS011;9764;48.114;11.670;2023-04-25T07:00:36;1.10;;;0.90;;
19260;SDS011;9764;48.114;11.670;2023-04-25T07:03:05;0.98;;;0.88;;
19260;SDS011;9764;48.114;11.670;2023-04-25T07:05:35;0.98;;;0.90;;
19260;SDS011;9764;48.114;11.670;2023-04-25T07:08:03;1.45;;;0.88;;
19260;SDS011;9764;48.114;11.670;2023-04-25T07:10:32;1.35;;;1.15;;
19260;SDS011;9764;48.114;11.670;2023-04-25T07:13:01;1.25;;;1.00;;
19260;SDS011;9764;48.114;11.670;2023-04-25T07:15:30;0.88;;;0.73;;
19260;SDS011;9764;48.114;11.670;2023-04-25T07:17:59;1.00;;;0.80;;
19260;SDS011;9764;48.114;11.670;2023-04-25T07:20:28;0.80;;;0.80;;
19260;SDS011;9764;48.114;11.670;2023-04-25T07:22:58;1.20;;;0.85;;
19260;SDS011;9764;48.114;11.670;2023-04-25T07:25:27;1.13;;;1.00;;
19260;SDS011;9764;48.114;11.670;2023-04-25T07:27:57;1.67;;;0.85;;
19260;SDS011;9764;48.114;11.670;2023-04-25T07:30:26;1.02;;;0.90;;
19260;SDS011;9764;48.114;11.670;2023-04-25T07:32:54;0.95;;;0.82;;
19260;SDS011;9764;48.114;11.670;2023-04-25T07:35:23;0.75;;;0.75;;
19260;SDS011;9764;48.114;11.670;2023-04-25T07:37:52;1.13;;;0.80;;
19260;SDS011;9764;48.114;11.670;2023-04-25T07:40:21;1.10;;;0.77;;
19260;SDS011;9764;48.114;11.670;2023-04-25T07:42:57;0.90;;;0.90;;
19260;SDS011;9764;48.114;11.670;2023-04-25T07:45:36;0.80;;;0.80;;
19260;SDS011;9764;48.114;11.670;2023-04-25T07:48:05;1.02;;;0.93;;
19260;SDS011;9764;48.114;11.670;2023-04-25T07:50:36;1.02;;;1.00;;
19260;SDS011;9764;48.114;11.670;2023-04-25T07:53:04;1.38;;;0.90;;
19260;SDS011;9764;48.114;11.670;2023-04-25T07:55:42;1.02;;;0.95;;
19260;SDS011;9764;48.114;11.670;2023-04-25T07:58:14;2.08;;;0.88;;
19260;SDS011;9764;48.114;11.670;2023-04-25T08:00:50;0.90;;;0.70;;
19260;SDS011;9764;48.114;11.670;2023-04-25T08:03:33;0.73;;;0.70;;
19260;SDS011;9764;48.114;11.670;2023-04-25T08:06:05;0.88;;;0.80;;
19260;SDS011;9764;48.114;11.670;2023-04-25T08:08:43;0.80;;;0.80;;
19260;SDS011;9764;48.114;11.670;2023-04-25T08:11:17;1.13;;;1.02;;
19260;SDS011;9764;48.114;11.670;2023-04-25T08:13:45;0.70;;;0.70;;
19260;SDS011;9764;48.114;11.670;2023-04-25T08:16:13;0.80;;;0.80;;
19260;SDS011;9764;48.114;11.670;2023-04-25T08:18:42;1.10;;;1.00;;
19260;SDS011;9764;48.114;11.670;2023-04-25T08:21:10;0.98;;;0.88;;
19260;SDS011;9764;48.114;11.670;2023-04-25T08:23:43;0.80;;;0.80;;
19260;SDS011;9764;48.114;11.670;2023-04-25T08:26:24;1.02;;;0.80;;
19260;SDS011;9764;48.114;11.670;2023-04-25T08:28:53;0.65;;;0.65;;
19260;SDS011;9764;48.114;11.670;2023-04-25T08:31:21;0.90;;;0.85;;
19260;SDS011;9764;48.114;11.670;2023-04-25T08:33:59;0.70;;;0.70;;
19260;SDS011;9764;48.114;11.670;2023-04-25T08:36:37;1.02;;;0.90;;
19260;SDS011;9764;48.114;11.670;2023-04-25T08:39:28;1.45;;;0.90;;
19260;SDS011;9764;48.114;11.670;2023-04-25T08:42:15;0.70;;;0.70;;
19260;SDS011;9764;48.114;11.670;2023-04-25T08:44:44;1.20;;;0.90;;
19260;SDS011;9764;48.114;11.670;2023-04-25T08:47:13;1.00;;;0.90;;
19260;SDS011;9764;48.114;11.670;2023-04-25T08:49:46;0.90;;;0.90;;
19260;SDS011;9764;48.114;11.670;2023-04-25T08:52:19;1.48;;;0.95;;
19260;SDS011;9764;48.114;11.670;2023-04-25T08:54:51;0.93;;;0.80;;
19260;SDS011;9764;48.114;11.670;2023-04-25T08:57:24;0.70;;;0.70;;
19260;SDS011;9764;48.114;11.670;2023-04-25T08:59:53;1.55;;;0.80;;
19260;SDS011;9764;48.114;11.670;2023-04-25T09:02:23;1.02;;;0.95;;
19260;SDS011;9764;48.114;11.670;2023-04-25T09:04:52;0.90;;;0.90;;
19260;SDS011;9764;48.114;11.670;2023-04-25T09:07:22;0.75;;;0.75;;
19260;SDS011;9764;48.114;11.670;2023-04-25T09:09:53;1.00;;;0.85;;
19260;SDS011;9764;48.114;11.670;2023-04-25T09:12:23;0.80;;;0.80;;
19260;SDS011;9764;48.114;11.670;2023-04-25T09:15:02;1.00;;;0.82;;
19260;SDS011;9764;48.114;11.670;2023-04-25T09:17:49;1.08;;;0.98;;
19260;SDS011;9764;48.114;11.670;2023-04-25T09:20:26;0.80;;;0.80;;
19260;SDS011;9764;48.114;11.670;2023-04-25T09:23:00;1.00;;;0.90;;
19260;SDS011;9764;48.114;11.670;2023-04-25T09:25:33;0.88;;;0.75;;
19260;SDS011;9764;48.114;11.670;2023-04-25T09:28:08;0.98;;;0.65;;
19260;SDS011;9764;48.114;11.670;2023-04-25T09:30:37;1.27;;;0.73;;
19260;SDS011;9764;48.114;11.670;2023-04-25T09:33:18;0.70;;;0.70;;
19260;SDS011;9764;48.114;11.670;2023-04-25T09:35:49;0.70;;;0.70;;
19260;SDS011;9764;48.114;11.670;2023-04-25T09:38:40;0.98;;;0.88;;
19260;SDS011;9764;48.114;11.670;2023-04-25T09:41:23;0.80;;;0.80;;
19260;SDS011;9764;48.114;11.670;2023-04-25T09:43:57;0.70;;;0.70;;
19260;SDS011;9764;48.114;11.670;2023-04-25T09:46:33;0.60;;;0.60;;
19260;SDS011;9764;48.114;11.670;2023-04-25T09:49:06;0.90;;;0.80;;
19260;SDS011;9764;48.114;11.670;2023-04-25T09:51:47;0.70;;;0.70;;
19260;SDS011;9764;48.114;11.670;2023-04-25T09:54:23;0.70;;;0.70;;
19260;SDS011;9764;48.114;11.670;2023-04-25T09:57:07;0.80;;;0.80;;
19260;SDS011;9764;48.114;11.670;2023-04-25T09:59:44;0.70;;;0.70;;
19260;SDS011;9764;48.114;11.670;2023-04-25T10:02:14;0.95;;;0.80;;
19260;SDS011;9764;48.114;11.670;2023-04-25T10:04:47;0.98;;;0.88;;
19260;SDS011;9764;48.114;11.670;2023-04-25T10:07:33;1.02;;;0.90;;
19260;SDS011;9764;48.114;11.670;2023-04-25T10:10:08;0.88;;;0.80;;
19260;SDS011;9764;48.114;11.670;2023-04-25T10:12:40;0.90;;;0.68;;
19260;SDS011;9764;48.114;11.670;2023-04-25T10:15:12;0.73;;;0.60;;
19260;SDS011;9764;48.114;11.670;2023-04-25T10:17:42;0.80;;;0.80;;
19260;SDS011;9764;48.114;11.670;2023-04-25T10:20:11;0.77;;;0.77;;
19260;SDS011;9764;48.114;11.670;2023-04-25T10:22:41;0.95;;;0.85;;
19260;SDS011;9764;48.114;11.670;2023-04-25T10:25:11;0.73;;;0.73;;
19260;SDS011;9764;48.114;11.670;2023-04-25T10:27:41;0.80;;;0.80;;
19260;SDS011;9764;48.114;11.670;2023-04-25T10:30:13;0.70;;;0.70;;
19260;SDS011;9764;48.114;11.670;2023-04-25T10:32:42;1.65;;;0.70;;
19260;SDS011;9764;48.114;11.670;2023-04-25T10:35:12;0.60;;;0.60;;
19260;SDS011;9764;48.114;11.670;2023-04-25T10:37:58;0.70;;;0.70;;
19260;SDS011;9764;48.114;11.670;2023-04-25T10:40:27;1.13;;;0.80;;
19260;SDS011;9764;48.114;11.670;2023-04-25T10:42:56;0.75;;;0.70;;
19260;SDS011;9764;48.114;11.670;2023-04-25T10:48:52;0.68;;;0.68;;
19260;SDS011;9764;48.114;11.670;2023-04-25T10:51:22;0.70;;;0.70;;
19260;SDS011;9764;48.114;11.670;2023-04-25T10:53:58;0.60;;;0.60;;
19260;SDS011;9764;48.114;11.670;2023-04-25T10:56:28;0.82;;;0.80;;
19260;SDS011;9764;48.114;11.670;2023-04-25T10:59:07;0.70;;;0.70;;
19260;SDS011;9764;48.114;11.670;2023-04-25T11:01:39;0.70;;;0.70;;
19260;SDS011;9764;48.114;11.670;2023-04-25T11:04:21;0.70;;;0.70;;
19260;SDS011;9764;48.114;11.670;2023-04-25T11:06:54;0.60;;;0.60;;
19260;SDS011;9764;48.114;11.670;2023-04-25T11:09:33;0.98;;;0.70;;
19260;SDS011;9764;48.114;11.670;2023-04-25T11:12:02;0.63;;;0.63;;
19260;SDS011;9764;48.114;11.670;2023-04-25T11:14:30;0.57;;;0.50;;
19260;SDS011;9764;48.114;11.670;2023-04-25T11:17:00;0.60;;;0.60;;
19260;SDS011;9764;48.114;11.670;2023-04-25T11:19:29;0.70;;;0.70;;
19260;SDS011;9764;48.114;11.670;2023-04-25T11:21:58;0.60;;;0.60;;
19260;SDS011;9764;48.114;11.670;2023-04-25T11:24:27;0.60;;;0.60;;
19260;SDS011;9764;48.114;11.670;2023-04-25T11:26:57;0.50;;;0.50;;
19260;SDS011;9764;48.114;11.670;2023-04-25T11:29:26;0.70;;;0.70;;
19260;SDS011;9764;48.114;11.670;2023-04-25T11:31:55;0.70;;;0.60;;
19260;SDS011;9764;48.114;11.670;2023-04-25T11:34:26;0.75;;;0.60;;
19260;SDS011;9764;48.114;11.670;2023-04-25T11:36:57;0.60;;;0.60;;
19260;SDS011;9764;48.114;11.670;2023-04-25T11:39:26;0.70;;;0.70;;
19260;SDS011;9764;48.114;11.670;2023-04-25T11:41:55;0.73;;;0.70;;
19260;SDS011;9764;48.114;11.670;2023-04-25T11:44:23;0.63;;;0.63;;
19260;SDS011;9764;48.114;11.670;2023-04-25T11:46:52;0.70;;;0.70;;
19260;SDS011;9764;48.114;11.670;2023-04-25T11:49:20;0.90;;;0.60;;
19260;SDS011;9764;48.114;11.670;2023-04-25T11:51:50;0.70;;;0.70;;
19260;SDS011;9764;48.114;11.670;2023-04-25T11:54:18;0.75;;;0.57;;
19260;SDS011;9764;48.114;11.670;2023-04-25T11:56:46;0.60;;;0.60;;
19260;SDS011;9764;48.114;11.670;2023-04-25T11:59:15;0.73;;;0.70;;
19260;SDS011;9764;48.114;11.670;2023-04-25T12:01:47;0.60;;;0.57;;
19260;SDS011;9764;48.114;11.670;2023-04-25T12:04:17;0.50;;;0.50;;
19260;SDS011;9764;48.114;11.670;2023-04-25T12:06:48;0.50;;;0.50;;
19260;SDS011;9764;48.114;11.670;2023-04-25T12:09:20;0.50;;;0.50;;
19260;SDS011;9764;48.114;11.670;2023-04-25T12:11:57;0.70;;;0.70;;
19260;SDS011;9764;48.114;11.670;2023-04-25T12:14:29;0.65;;;0.65;;
19260;SDS011;9764;48.114;11.670;2023-04-25T12:16:59;0.60;;;0.60;;
19260;SDS011;9764;48.114;11.670;2023-04-25T12:19:31;0.50;;;0.50;;
19260;SDS011;9764;48.114;11.670;2023-04-25T12:22:02;0.50;;;0.50;;
19260;SDS011;9764;48.114;11.670;2023-04-25T12:24:33;0.70;;;0.70;;
19260;SDS011;9764;48.114;11.670;2023-04-25T12:27:06;0.88;;;0.60;;
19260;SDS011;9764;48.114;11.670;2023-04-25T12:29:35;0.60;;;0.60;;
19260;SDS011;9764;48.114;11.670;2023-04-25T12:32:15;1.77;;;0.70;;
19260;SDS011;9764;48.114;11.670;2023-04-25T12:34:44;0.63;;;0.63;;
19260;SDS011;9764;48.114;11.670;2023-04-25T12:37:14;0.60;;;0.60;;
19260;SDS011;9764;48.114;11.670;2023-04-25T12:39:42;0.60;;;0.60;;
19260;SDS011;9764;48.114;11.670;2023-04-25T12:42:11;0.70;;;0.70;;
19260;SDS011;9764;48.114;11.670;2023-04-25T12:44:39;0.70;;;0.60;;
19260;SDS011;9764;48.114;11.670;2023-04-25T12:47:08;0.50;;;0.50;;
19260;SDS011;9764;48.114;11.670;2023-04-25T12:49:37;0.60;;;0.60;;
19260;SDS011;9764;48.114;11.670;2023-04-25T12:52:05;0.63;;;0.60;;
19260;SDS011;9764;48.114;11.670;2023-04-25T12:54:35;0.63;;;0.60;;
19260;SDS011;9764;48.114;11.670;2023-04-25T12:57:03;0.60;;;0.60;;
19260;SDS011;9764;48.114;11.670;2023-04-25T12:59:31;0.60;;;0.60;;
19260;SDS011;9764;48.114;11.670;2023-04-25T13:02:00;0.65;;;0.60;;
19260;SDS011;9764;48.114;11.670;2023-04-25T13:04:30;1.00;;;0.70;;
19260;SDS011;9764;48.114;11.670;2023-04-25T13:06:58;0.77;;;0.70;;
19260;SDS011;9764;48.114;11.670;2023-04-25T13:09:27;0.50;;;0.50;;
19260;SDS011;9764;48.114;11.670;2023-04-25T13:11:57;0.63;;;0.60;;
19260;SDS011;9764;48.114;11.670;2023-04-25T13:14:25;1.95;;;0.60;;
19260;SDS011;9764;48.114;11.670;2023-04-25T13:16:53;0.40;;;0.40;;
19260;SDS011;9764;48.114;11.670;2023-04-25T13:19:22;0.50;;;0.50;;
19260;SDS011;9764;48.114;11.670;2023-04-25T13:21:50;1.08;;;0.50;;
19260;SDS011;9764;48.114;11.670;2023-04-25T13:24:19;0.60;;;0.60;;
19260;SDS011;9764;48.114;11.670;2023-04-25T13:26:48;1.00;;;0.50;;
19260;SDS011;9764;48.114;11.670;2023-04-25T13:29:18;0.52;;;0.52;;
19260;SDS011;9764;48.114;11.670;2023-04-25T13:31:46;0.70;;;0.60;;
19260;SDS011;9764;48.114;11.670;2023-04-25T13:34:14;0.50;;;0.50;;
19260;SDS011;9764;48.114;11.670;2023-04-25T13:36:43;0.73;;;0.60;;
19260;SDS011;9764;48.114;11.670;2023-04-25T13:39:12;0.50;;;0.50;;
19260;SDS011;9764;48.114;11.670;2023-04-25T13:41:41;0.60;;;0.57;;
19260;SDS011;9764;48.114;11.670;2023-04-25T13:44:10;0.52;;;0.52;;
19260;SDS011;9764;48.114;11.670;2023-04-25T13:46:40;0.55;;;0.55;;
19260;SDS011;9764;48.114;11.670;2023-04-25T13:49:13;0.60;;;0.60;;
19260;SDS011;9764;48.114;11.670;2023-04-25T13:51:42;0.68;;;0.68;;
19260;SDS011;9764;48.114;11.670;2023-04-25T13:54:10;0.60;;;0.60;;
19260;SDS011;9764;48.114;11.670;2023-04-25T13:56:39;0.52;;;0.50;;
19260;SDS011;9764;48.114;11.670;2023-04-25T13:59:09;0.63;;;0.50;;
19260;SDS011;9764;48.114;11.670;2023-04-25T14:01:37;0.50;;;0.50;;
19260;SDS011;9764;48.114;11.670;2023-04-25T14:04:08;0.47;;;0.47;;
19260;SDS011;9764;48.114;11.670;2023-04-25T14:06:36;0.50;;;0.50;;
19260;SDS011;9764;48.114;11.670;2023-04-25T14:09:05;0.40;;;0.40;;
19260;SDS011;9764;48.114;11.670;2023-04-25T14:11:36;0.57;;;0.57;;
19260;SDS011;9764;48.114;11.670;2023-04-25T14:14:05;0.68;;;0.60;;
19260;SDS011;9764;48.114;11.670;2023-04-25T14:16:33;0.93;;;0.60;;
19260;SDS011;9764;48.114;11.670;2023-04-25T14:19:03;0.45;;;0.45;;
19260;SDS011;9764;48.114;11.670;2023-04-25T14:21:31;0.63;;;0.57;;
19260;SDS011;9764;48.114;11.670;2023-04-25T14:24:00;0.88;;;0.60;;
19260;SDS011;9764;48.114;11.670;2023-04-25T14:26:28;1.00;;;0.60;;
19260;SDS011;9764;48.114;11.670;2023-04-25T14:28:57;0.50;;;0.50;;
19260;SDS011;9764;48.114;11.670;2023-04-25T14:31:28;0.40;;;0.40;;
19260;SDS011;9764;48.114;11.670;2023-04-25T14:33:56;0.43;;;0.43;;
19260;SDS011;9764;48.114;11.670;2023-04-25T14:36:26;0.40;;;0.40;;
19260;SDS011;9764;48.114;11.670;2023-04-25T14:38:57;0.50;;;0.50;;
19260;SDS011;9764;48.114;11.670;2023-04-25T14:41:25;0.57;;;0.50;;
19260;SDS011;9764;48.114;11.670;2023-04-25T14:43:54;1.08;;;0.60;;
19260;SDS011;9764;48.114;11.670;2023-04-25T14:46:23;0.50;;;0.50;;
19260;SDS011;9764;48.114;11.670;2023-04-25T14:48:52;0.93;;;0.60;;
19260;SDS011;9764;48.114;11.670;2023-04-25T14:51:22;0.40;;;0.40;;
19260;SDS011;9764;48.114;11.670;2023-04-25T14:53:52;0.85;;;0.60;;
19260;SDS011;9764;48.114;11.670;2023-04-25T14:56:20;1.40;;;0.50;;
19260;SDS011;9764;48.114;11.670;2023-04-25T14:58:49;0.43;;;0.43;;
19260;SDS011;9764;48.114;11.670;2023-04-25T15:01:17;0.50;;;0.50;;
19260;SDS011;9764;48.114;11.670;2023-04-25T15:03:47;0.60;;;0.52;;
19260;SDS011;9764;48.114;11.670;2023-04-25T15:06:16;0.50;;;0.50;;
19260;SDS011;9764;48.114;11.670;2023-04-25T15:08:45;0.63;;;0.55;;
19260;SDS011;9764;48.114;11.670;2023-04-25T15:11:14;0.40;;;0.40;;
19260;SDS011;9764;48.114;11.670;2023-04-25T15:13:43;0.50;;;0.50;;
19260;SDS011;9764;48.114;11.670;2023-04-25T15:16:11;0.50;;;0.50;;
19260;SDS011;9764;48.114;11.670;2023-04-25T15:18:39;0.40;;;0.40;;
19260;SDS011;9764;48.114;11.670;2023-04-25T15:21:08;1.08;;;0.60;;